Gilze-Rijen, Netherlands

11:52 AM CEST on April 25, 2017 (GMT +0200)
Atalanta | | Change Station

Elev 36 ft 51.58 °N, 4.92 °E | Updated 3 minutes ago

Rain
Rain
45.7 °F
Feels Like 45 °F
N
3.1
Wind Variable Wind from NNW
Gusts 6.8 mph

Today
High -- | Low -- °F
--% Chance of Precip.
Yesterday
High -- | Low -- °F
Precip. -- in
Pressure 29.83 in
Visibility 6.2 miles
Clouds Scattered Clouds 2200 ft
Scattered Clouds 3000 ft
Mostly Cloudy 3600 ft
Windchill 45 °F
Dew Point 37 °F
Humidity 71%
Rainfall 0.01 in
Snow Depth Not available.
6:23 AM 8:54 PM
Waning Crescent, 2% visible
SPECI EHWO 250943Z AUTO 34010G21KT 250V030 9999 SCT022 SCT030 BKN036 06/02 Q1010 WHT 33012KT 9999 SCT025 SCT030 TEMPO 31012G22KT FEW018CB BKN020
Pressure 29.83 in
Visibility 6.2 miles
Clouds Scattered Clouds 2200 ft
Scattered Clouds 3000 ft
Mostly Cloudy 3600 ft
Windchill 45 °F
Dew Point 37 °F
Humidity 71%
Rainfall 0.01 in
Snow Depth Not available.
6:23 AM 8:54 PM
Waning Crescent, 2% visible
SPECI EHWO 250943Z AUTO 34010G21KT 250V030 9999 SCT022 SCT030 BKN036 06/02 Q1010 WHT 33012KT 9999 SCT025 SCT030 TEMPO 31012G22KT FEW018CB BKN020

Get Severe Weather Alerts

Thanks for signing up!

Be on the lookout for a verification email in your inbox.

You'll start receiving the daily forecast at 8 AM.

×

10-Day Weather Forecast

×

Almanac

Astronomy

Apr. 25, 2017 Rise Set
Actual Time
Civil Twilight
Nautical Twilight
Astronomical Twilight
Moon
Length of Visible Light
Length of Day
Tomorrow will be .
, % of the Moon is Illuminated

Today's Extremes

Country Highs Country Lows

Community

WunderPhotos

WunderBlog® & News

Nearby

Air Quality

  Air Quality AQ Index Pollutant
Not available.

Snow Depth

Station Depth Elevation

Earthquake Activity

City Distance Mag. Time & Date
Minimum magnitude displayed is 2.5.

Coastal Water Temperatures

Place Temperature

Stations

Nearby Weather Stations

Station Location Temp. Windchill Dew Point Humidity Wind Precip. Elev Updated Type